Time;durP1;ratioP1;P1;durP2;ratioP2;P2;SDS_P1;SDS_P2;PMS_P1;PMS_P2;Temp;Humidity;BMP_temperature;BMP_pressure;BME280_temperature;BME280_humidity;BME280_pressure;Samples;Min_cycle;Max_cycle;Signal;HPM_P1;HPM_P2
2023/03/29 00:00:46;;;;;;;;;15.33;15.33;;;;;12.08;100.00;101218.31;5083086;27;46510;-77
2023/03/29 00:03:13;;;;;;;;;16.00;13.67;;;;;11.98;100.00;101195.88;5072428;27;45781;-78
2023/03/29 00:05:40;;;;;;;;;15.33;13.00;;;;;12.23;100.00;101236.50;5086479;27;45902;-78
2023/03/29 00:08:06;;;;;;;;;13.67;10.33;;;;;12.24;100.00;101240.97;5089629;27;46057;-77
2023/03/29 00:10:33;;;;;;;;;14.00;12.00;;;;;12.26;100.00;101241.59;5074887;27;45610;-78
2023/03/29 00:12:59;;;;;;;;;13.67;12.67;;;;;12.28;100.00;101232.09;5098022;27;45456;-77
2023/03/29 00:15:25;;;;;;;;;12.00;11.00;;;;;12.21;100.00;101220.22;5091516;27;45403;-77
2023/03/29 00:17:54;;;;;;;;;10.50;10.50;;;;;12.34;100.00;101225.75;5077134;27;45450;-85
2023/03/29 00:20:21;;;;;;;;;12.00;10.33;;;;;12.28;100.00;101220.25;5093456;27;45734;-76
2023/03/29 00:22:47;;;;;;;;;10.67;10.67;;;;;12.47;100.00;101230.44;5073552;27;45842;-75
2023/03/29 00:25:13;;;;;;;;;15.33;12.00;;;;;12.47;100.00;101233.19;5073574;27;45826;-75
2023/03/29 00:27:39;;;;;;;;;12.00;11.00;;;;;12.45;100.00;101235.28;5091596;27;45842;-75
2023/03/29 00:30:06;;;;;;;;;15.00;13.00;;;;;12.51;100.00;101242.72;5094925;27;46199;-78
2023/03/29 00:32:32;;;;;;;;;11.67;11.67;;;;;12.48;100.00;101234.03;5082499;27;45697;-79
2023/03/29 00:34:59;;;;;;;;;14.67;13.67;;;;;12.30;100.00;101207.97;5101192;27;45445;-80
2023/03/29 00:37:28;;;;;;;;;12.33;10.00;;;;;12.49;100.00;101236.56;5099222;27;45700;-82
2023/03/29 00:39:55;;;;;;;;;11.67;11.33;;;;;12.53;100.00;101243.34;5079620;27;46184;-81
2023/03/29 00:42:20;;;;;;;;;13.67;13.67;;;;;12.50;100.00;101246.53;5078932;27;45750;-81
2023/03/29 00:45:12;;;;;;;;;13.67;11.67;;;;;12.50;100.00;101241.03;5101692;27;45502;-81
2023/03/29 00:47:55;;;;;;;;;13.67;12.67;;;;;12.50;100.00;101238.28;5073135;27;46237;-79
2023/03/29 00:50:56;;;;;;;;;15.67;13.33;;;;;12.46;100.00;101237.00;5092445;27;45520;-81
2023/03/29 00:53:32;;;;;;;;;11.00;10.00;;;;;12.48;100.00;101239.53;5099994;27;45479;-80
2023/03/29 00:56:05;;;;;;;;;14.33;13.00;;;;;12.52;100.00;101238.06;5083596;27;45484;-81
2023/03/29 00:58:56;;;;;;;;;11.33;10.67;;;;;12.53;100.00;101224.09;5105680;27;45931;-80
2023/03/29 01:01:33;;;;;;;;;11.00;11.00;;;;;12.49;100.00;101228.31;5091834;27;46280;-80
2023/03/29 01:04:17;;;;;;;;;12.33;11.67;;;;;12.48;100.00;101218.34;5095485;27;45401;-79
2023/03/29 01:06:55;;;;;;;;;10.33;9.00;;;;;12.58;100.00;101217.13;5102286;27;45381;-80
2023/03/29 01:09:25;;;;;;;;;13.67;12.33;;;;;12.62;100.00;101224.75;5093929;27;45535;-79
2023/03/29 01:11:59;;;;;;;;;8.00;8.00;;;;;12.60;100.00;101223.25;5093862;27;45436;-79
2023/03/29 01:14:34;;;;;;;;;10.67;10.67;;;;;12.61;100.00;101219.44;5078204;27;45537;-80
2023/03/29 01:17:00;;;;;;;;;13.00;9.67;;;;;12.53;100.00;101204.00;5077836;27;45848;-79
2023/03/29 01:19:31;;;;;;;;;14.67;11.00;;;;;12.67;100.00;101211.19;5088779;27;45547;-79
2023/03/29 01:22:17;;;;;;;;;8.33;8.33;;;;;12.68;100.00;101221.16;5093489;27;46174;-80
2023/03/29 01:24:49;;;;;;;;;9.00;9.00;;;;;12.70;100.00;101218.19;5091757;27;45514;-80
2023/03/29 01:27:39;;;;;;;;;10.33;10.33;;;;;12.72;100.00;101213.28;5076654;27;45775;-80
2023/03/29 01:30:13;;;;;;;;;13.33;10.00;;;;;12.77;100.00;101209.91;5074539;27;45565;-82
2023/03/29 01:32:46;;;;;;;;;11.00;8.67;;;;;12.74;100.00;101197.44;5063298;27;47473;-79
2023/03/29 01:35:37;;;;;;;;;11.00;11.00;;;;;12.84;100.00;101208.88;5068575;27;45805;-80
2023/03/29 01:38:12;;;;;;;;;9.33;9.33;;;;;12.87;100.00;101202.94;5081280;27;45557;-80
2023/03/29 01:40:38;;;;;;;;;8.00;8.00;;;;;12.92;100.00;101201.44;5082568;27;45496;-79
2023/03/29 01:43:21;;;;;;;;;10.00;9.33;;;;;12.91;100.00;101199.75;5082155;27;45462;-80
2023/03/29 01:45:49;;;;;;;;;11.33;9.00;;;;;12.93;99.98;101208.63;5070161;27;45472;-79
2023/03/29 01:48:23;;;;;;;;;10.67;9.33;;;;;12.96;100.00;101213.72;5095578;27;45817;-80
2023/03/29 01:51:04;;;;;;;;;7.67;6.67;;;;;12.99;99.86;101214.13;5089624;27;45371;-80
2023/03/29 01:54:03;;;;;;;;;11.33;9.00;;;;;13.00;99.68;101207.56;5074291;27;47224;-80
2023/03/29 01:56:36;;;;;;;;;11.00;10.00;;;;;12.97;99.55;101199.75;5089799;27;45394;-82
2023/03/29 01:59:06;;;;;;;;;10.00;9.33;;;;;12.93;99.38;101195.72;5097188;27;45370;-81
2023/03/29 02:01:41;;;;;;;;;9.00;8.33;;;;;12.89;99.33;101194.47;5084583;27;45973;-81
2023/03/29 02:04:12;;;;;;;;;12.67;9.33;;;;;12.90;99.41;101193.38;5112528;27;46916;-83
2023/03/29 02:06:39;;;;;;;;;9.33;8.33;;;;;12.84;100.00;101195.13;5078981;27;45871;-83
2023/03/29 02:09:06;;;;;;;;;10.00;9.33;;;;;12.74;100.00;101180.06;5073147;27;45710;-82
2023/03/29 02:11:33;;;;;;;;;13.33;10.67;;;;;12.90;100.00;101198.91;5089048;27;45757;-80
2023/03/29 02:13:59;;;;;;;;;9.33;7.00;;;;;12.79;100.00;101180.28;5094795;27;46745;-80
2023/03/29 02:16:25;;;;;;;;;10.00;9.33;;;;;12.86;100.00;101190.22;5077937;27;45937;-81
2023/03/29 02:18:53;;;;;;;;;11.67;8.00;;;;;12.65;100.00;101163.78;5091429;27;45727;-81
2023/03/29 02:21:43;;;;;;;;;8.67;7.33;;;;;12.79;100.00;101183.88;5081954;27;45463;-82
2023/03/29 02:24:12;;;;;;;;;10.33;9.67;;;;;12.86;100.00;101186.63;5090947;27;45681;-80
2023/03/29 02:26:49;;;;;;;;;11.67;10.33;;;;;12.88;100.00;101192.75;5083988;27;45497;-83
2023/03/29 02:29:15;;;;;;;;;10.00;10.00;;;;;12.91;100.00;101188.75;5096743;27;45933;-80
2023/03/29 02:31:48;;;;;;;;;13.67;9.67;;;;;12.90;100.00;101171.38;5095272;27;45730;-81
2023/03/29 02:34:27;;;;;;;;;11.33;10.00;;;;;12.79;100.00;101147.25;5091599;27;46356;-79
2023/03/29 02:37:00;;;;;;;;;14.67;9.67;;;;;12.78;100.00;101149.16;5071169;27;45469;-79
2023/03/29 02:39:27;;;;;;;;;12.00;10.67;;;;;12.83;100.00;101165.88;5064252;27;45599;-80
2023/03/29 02:41:54;;;;;;;;;10.67;9.67;;;;;12.86;100.00;101176.47;5075579;27;45386;-80
2023/03/29 02:44:24;;;;;;;;;8.33;7.67;;;;;12.66;100.00;101142.59;5088353;27;46949;-80
2023/03/29 02:46:55;;;;;;;;;9.67;9.33;;;;;12.75;100.00;101162.50;5097223;27;45500;-79
2023/03/29 02:49:21;;;;;;;;;9.33;9.33;;;;;12.56;100.00;101139.44;5083395;27;45602;-80
2023/03/29 02:51:51;;;;;;;;;11.33;11.00;;;;;12.62;100.00;101155.09;5095136;27;45499;-80
2023/03/29 02:54:24;;;;;;;;;11.00;9.00;;;;;12.60;100.00;101147.03;5093367;27;46097;-81
2023/03/29 02:56:59;;;;;;;;;12.67;10.33;;;;;12.56;100.00;101136.69;5097326;27;45369;-81
2023/03/29 02:59:26;;;;;;;;;10.33;9.33;;;;;12.64;100.00;101145.56;5077598;27;45382;-79
2023/03/29 03:01:52;;;;;;;;;12.67;8.67;;;;;12.49;100.00;101118.28;5090103;27;45837;-80
2023/03/29 03:04:19;;;;;;;;;8.00;7.33;;;;;12.65;100.00;101146.41;5089023;27;45661;-80
2023/03/29 03:06:46;;;;;;;;;12.33;9.00;;;;;12.65;100.00;101150.03;5088906;27;45764;-80
2023/03/29 03:09:12;;;;;;;;;15.00;10.00;;;;;12.64;100.00;101155.75;5056340;28;46042;-80
2023/03/29 03:11:38;;;;;;;;;8.33;8.00;;;;;12.64;100.00;101150.25;5086162;27;45764;-80
2023/03/29 03:14:04;;;;;;;;;11.33;9.33;;;;;12.69;100.00;101150.44;5081168;27;46471;-79
2023/03/29 03:16:30;;;;;;;;;10.33;8.67;;;;;12.70;100.00;101152.13;5085840;27;45836;-80
2023/03/29 03:18:56;;;;;;;;;15.33;11.00;;;;;12.59;100.00;101150.88;5093383;27;45749;-81
2023/03/29 03:21:22;;;;;;;;;13.33;10.67;;;;;12.69;100.00;101148.53;5078624;27;45787;-80
2023/03/29 03:23:48;;;;;;;;;9.33;9.33;;;;;12.60;100.00;101130.53;5105103;27;45816;-82
2023/03/29 03:26:15;;;;;;;;;11.33;9.33;;;;;12.66;100.00;101131.59;5083692;27;45499;-81
2023/03/29 03:28:40;;;;;;;;;11.00;9.00;;;;;12.60;100.00;101133.28;5085596;27;46758;-80
2023/03/29 03:31:06;;;;;;;;;13.00;9.33;;;;;12.66;100.00;101139.84;5088153;27;46986;-82
2023/03/29 03:33:33;;;;;;;;;10.00;7.00;;;;;12.61;100.00;101146.00;5092649;27;47583;-82
2023/03/29 03:36:01;;;;;;;;;10.00;9.00;;;;;12.66;100.00;101151.69;5096512;27;45414;-82
2023/03/29 03:38:31;;;;;;;;;12.00;8.00;;;;;12.65;100.00;101140.91;5077922;27;45524;-82
2023/03/29 03:40:58;;;;;;;;;8.33;8.33;;;;;12.61;100.00;101117.66;5088332;27;47110;-82
2023/03/29 03:43:24;;;;;;;;;8.33;7.33;;;;;12.46;100.00;101113.19;5091829;27;46791;-83
2023/03/29 03:45:50;;;;;;;;;9.00;8.00;;;;;12.66;100.00;101140.69;5091823;27;45554;-81
2023/03/29 03:48:17;;;;;;;;;7.33;7.33;;;;;12.67;100.00;101149.81;5083887;27;45622;-82
2023/03/29 03:50:54;;;;;;;;;10.67;7.67;;;;;12.70;100.00;101130.94;5091586;27;45416;-83
2023/03/29 03:53:20;;;;;;;;;10.33;9.33;;;;;12.76;100.00;101133.94;5084931;27;46039;-83
2023/03/29 03:55:48;;;;;;;;;11.33;10.00;;;;;12.81;100.00;101145.13;5092199;27;45385;-84
2023/03/29 03:58:20;;;;;;;;;9.00;7.67;;;;;12.75;100.00;101132.22;5089408;27;45531;-84
2023/03/29 04:00:49;;;;;;;;;7.67;6.67;;;;;12.85;100.00;101144.47;5083053;27;45639;-83
2023/03/29 04:03:17;;;;;;;;;7.33;7.00;;;;;12.71;100.00;101123.56;5104915;27;45867;-83
2023/03/29 04:05:44;;;;;;;;;8.00;8.00;;;;;12.67;100.00;101106.63;5091791;27;45808;-82
2023/03/29 04:08:12;;;;;;;;;8.00;7.00;;;;;12.84;100.00;101144.69;5094056;27;45574;-82
2023/03/29 04:10:40;;;;;;;;;10.33;8.67;;;;;12.61;100.00;101098.38;5084086;27;46773;-82
2023/03/29 04:13:07;;;;;;;;;8.67;8.00;;;;;12.68;100.00;101121.25;5080370;27;48189;-85
2023/03/29 04:15:37;;;;;;;;;8.67;8.67;;;;;12.67;100.00;101125.88;5087313;27;45451;-83
2023/03/29 04:18:03;;;;;;;;;8.33;8.33;;;;;12.75;100.00;101124.81;5096996;27;45405;-79
2023/03/29 04:20:29;;;;;;;;;10.00;9.00;;;;;12.63;100.00;101099.00;5079558;27;46110;-79
2023/03/29 04:22:54;;;;;;;;;11.67;9.00;;;;;12.69;100.00;101123.78;5077512;27;47248;-81
2023/03/29 04:25:21;;;;;;;;;10.00;8.67;;;;;12.60;100.00;101110.44;5089973;27;45575;-81
2023/03/29 04:27:47;;;;;;;;;7.00;7.00;;;;;12.78;100.00;101135.38;5072568;27;45542;-81
2023/03/29 04:30:19;;;;;;;;;7.67;7.67;;;;;12.74;100.00;101117.63;5090675;27;45820;-79
2023/03/29 04:32:45;;;;;;;;;9.33;8.00;;;;;12.89;100.00;101139.41;5081369;27;45695;-80
2023/03/29 04:35:10;;;;;;;;;8.33;7.33;;;;;12.85;100.00;101125.22;5077418;27;45512;-80
2023/03/29 04:37:39;;;;;;;;;8.00;8.00;;;;;12.92;100.00;101133.47;5072962;27;45362;-81
2023/03/29 04:40:18;;;;;;;;;8.67;8.67;;;;;12.94;100.00;101138.75;5070606;27;45383;-81
2023/03/29 04:42:44;;;;;;;;;11.00;8.33;;;;;12.99;100.00;101134.28;5066060;27;46179;-81
2023/03/29 04:45:12;;;;;;;;;8.67;7.00;;;;;13.00;100.00;101126.88;5092958;27;45444;-80
2023/03/29 04:47:40;;;;;;;;;8.33;7.33;;;;;12.96;100.00;101109.09;5087286;27;45668;-82
2023/03/29 04:50:08;;;;;;;;;8.67;8.00;;;;;12.99;100.00;101105.91;5085950;27;45484;-81
2023/03/29 04:52:34;;;;;;;;;7.00;7.00;;;;;12.84;100.00;101084.13;5082327;27;47961;-82
2023/03/29 04:55:00;;;;;;;;;7.67;7.67;;;;;12.86;100.00;101099.38;5072745;28;45465;-81
2023/03/29 04:57:26;;;;;;;;;9.00;7.33;;;;;12.82;100.00;101109.13;5084920;27;45746;-81
2023/03/29 05:00:14;;;;;;;;;13.67;9.33;;;;;12.68;100.00;101090.97;5071825;27;45910;-82
2023/03/29 05:02:43;;;;;;;;;8.00;8.00;;;;;12.74;100.00;101111.25;5088602;27;45691;-82
2023/03/29 05:05:10;;;;;;;;;8.00;8.00;;;;;12.63;100.00;101112.75;5093102;27;45923;-83
2023/03/29 05:07:36;;;;;;;;;10.67;7.00;;;;;12.71;100.00;101129.06;5091403;27;46202;-82
2023/03/29 05:10:03;;;;;;;;;9.67;8.67;;;;;12.73;100.00;101132.44;5070640;27;45598;-83
2023/03/29 05:12:28;;;;;;;;;8.33;7.67;;;;;12.64;100.00;101112.56;5077900;27;47149;-80
2023/03/29 05:14:54;;;;;;;;;7.00;7.00;;;;;12.79;100.00;101137.09;5098673;27;45483;-81
2023/03/29 05:17:20;;;;;;;;;8.00;6.00;;;;;12.78;100.00;101129.88;5066307;27;45625;-81
2023/03/29 05:19:46;;;;;;;;;6.67;6.67;;;;;12.68;100.00;101097.31;5071783;27;45922;-86
2023/03/29 05:22:13;;;;;;;;;8.33;6.67;;;;;12.97;100.00;101135.59;5078575;27;45516;-79
2023/03/29 05:24:42;;;;;;;;;7.33;7.33;;;;;13.03;100.00;101126.44;5061235;27;45494;-80
2023/03/29 05:27:07;;;;;;;;;8.00;6.67;;;;;13.01;100.00;101120.34;5089878;27;45885;-77
2023/03/29 05:29:32;;;;;;;;;7.00;4.67;;;;;13.14;100.00;101125.78;5087415;27;46120;-79
2023/03/29 05:31:58;;;;;;;;;7.33;6.67;;;;;13.21;100.00;101112.00;5084696;27;47079;-79
2023/03/29 05:34:25;;;;;;;;;8.00;6.67;;;;;13.27;100.00;101107.53;5065325;27;45379;-77
2023/03/29 05:36:51;;;;;;;;;7.00;5.00;;;;;13.21;100.00;101093.56;5089220;27;45349;-77
2023/03/29 05:39:17;;;;;;;;;8.67;6.67;;;;;13.29;100.00;101108.16;5089828;27;45809;-77
2023/03/29 05:41:42;;;;;;;;;7.33;5.00;;;;;13.32;100.00;101107.72;5093195;27;45812;-77
2023/03/29 05:44:09;;;;;;;;;6.67;5.33;;;;;13.33;100.00;101092.88;5067355;27;45704;-79
2023/03/29 05:46:35;;;;;;;;;4.00;4.00;;;;;13.34;100.00;101100.97;5066958;27;45398;-77
2023/03/29 05:49:01;;;;;;;;;4.67;4.00;;;;;13.34;100.00;101100.13;5094117;27;46283;-78
2023/03/29 05:51:26;;;;;;;;;8.00;8.00;;;;;13.24;100.00;101101.38;5092533;27;45339;-78
2023/03/29 05:53:52;;;;;;;;;5.33;5.33;;;;;13.36;100.00;101109.00;5086418;27;45762;-78
2023/03/29 05:56:18;;;;;;;;;5.00;5.00;;;;;13.37;100.00;101102.44;5084713;27;45407;-78
2023/03/29 05:58:45;;;;;;;;;6.33;5.33;;;;;13.25;100.00;101091.22;5070595;27;47372;-79
2023/03/29 06:01:13;;;;;;;;;5.33;4.67;;;;;13.35;100.00;101107.31;5086934;27;46096;-80
2023/03/29 06:03:39;;;;;;;;;5.33;5.33;;;;;13.31;100.00;101117.88;5069041;27;46265;-79
2023/03/29 06:06:05;;;;;;;;;8.67;8.67;;;;;13.34;100.00;101122.16;5082639;27;45578;-79
2023/03/29 06:08:32;;;;;;;;;7.67;7.67;;;;;13.35;100.00;101113.69;5086927;27;45791;-79
2023/03/29 06:11:00;;;;;;;;;6.33;6.33;;;;;13.38;100.00;101109.63;5092042;27;46345;-78
2023/03/29 06:13:27;;;;;;;;;8.67;6.33;;;;;13.42;100.00;101110.88;5084705;27;45515;-79
2023/03/29 06:15:53;;;;;;;;;5.67;4.33;;;;;13.47;100.00;101108.28;5070446;27;45746;-77
2023/03/29 06:18:19;;;;;;;;;6.33;5.67;;;;;13.51;100.00;101106.81;5078351;27;46719;-77
2023/03/29 06:20:49;;;;;;;;;7.67;5.33;;;;;13.49;100.00;101097.91;5088682;27;46539;-75
2023/03/29 06:23:14;;;;;;;;;3.67;3.33;;;;;13.56;100.00;101098.75;5083935;27;45528;-78
2023/03/29 06:25:39;;;;;;;;;9.33;4.00;;;;;13.52;100.00;101088.38;5074196;27;46085;-77
2023/03/29 06:28:05;;;;;;;;;5.67;5.67;;;;;13.56;100.00;101087.72;5086563;27;45814;-80
2023/03/29 06:30:30;;;;;;;;;9.00;7.00;;;;;13.57;100.00;101074.78;5077756;27;46729;-78
2023/03/29 06:32:58;;;;;;;;;6.33;3.67;;;;;13.62;100.00;101068.59;5084499;27;45556;-78
2023/03/29 06:35:24;;;;;;;;;5.00;5.00;;;;;13.76;100.00;101090.34;5081446;27;45924;-77
2023/03/29 06:37:53;;;;;;;;;5.67;5.33;;;;;13.62;100.00;101077.69;5065133;27;45878;-78
2023/03/29 06:40:20;;;;;;;;;5.33;3.67;;;;;13.49;100.00;101045.56;5083032;27;45967;-77
2023/03/29 06:42:46;;;;;;;;;3.00;2.67;;;;;13.87;100.00;101099.81;5069169;27;45685;-78
2023/03/29 06:45:12;;;;;;;;;5.67;3.67;;;;;13.98;100.00;101097.41;5081073;27;45821;-77
2023/03/29 06:47:38;;;;;;;;;7.67;3.33;;;;;14.03;100.00;101094.84;5086888;27;45936;-78
2023/03/29 06:50:04;;;;;;;;;10.33;6.33;;;;;14.19;100.00;101110.84;5080647;27;47176;-78
2023/03/29 06:52:29;;;;;;;;;5.33;3.00;;;;;14.12;100.00;101085.22;5084120;27;45814;-79
2023/03/29 06:54:55;;;;;;;;;4.00;4.00;;;;;14.35;100.00;101095.63;5087897;27;45984;-78
2023/03/29 06:57:21;;;;;;;;;3.67;3.67;;;;;14.47;100.00;101104.00;5085550;27;45836;-80
2023/03/29 06:59:47;;;;;;;;;3.67;3.67;;;;;14.60;100.00;101117.69;5088299;27;45877;-80
2023/03/29 07:02:13;;;;;;;;;11.00;8.00;;;;;14.73;100.00;101113.16;5060541;27;45640;-79
2023/03/29 07:04:40;;;;;;;;;7.33;6.33;;;;;14.85;100.00;101105.81;5084126;27;45583;-80
2023/03/29 07:07:10;;;;;;;;;4.33;4.33;;;;;15.10;100.00;101102.13;5082462;27;45924;-81
2023/03/29 07:09:38;;;;;;;;;7.33;4.00;;;;;15.47;100.00;101115.94;5095439;27;45994;-79
2023/03/29 07:12:05;;;;;;;;;3.33;3.33;;;;;15.68;100.00;101104.34;5089347;27;45551;-81
2023/03/29 07:14:32;;;;;;;;;4.00;4.00;;;;;15.94;100.00;101118.06;5089852;27;45800;-76
2023/03/29 07:16:58;;;;;;;;;5.33;4.33;;;;;16.04;100.00;101115.59;5076229;27;46137;-78
2023/03/29 07:19:26;;;;;;;;;8.67;6.00;;;;;16.15;100.00;101111.16;5079159;27;45893;-77
2023/03/29 07:21:53;;;;;;;;;6.67;4.67;;;;;16.23;100.00;101119.97;5063571;27;45849;-76
2023/03/29 07:24:19;;;;;;;;;4.33;3.33;;;;;16.37;100.00;101109.50;5061678;28;45993;-77
2023/03/29 07:26:51;;;;;;;;;4.33;4.33;;;;;16.50;100.00;101115.91;5086669;27;45807;-81
2023/03/29 07:29:17;;;;;;;;;5.67;3.67;;;;;16.73;100.00;101115.91;5084309;27;45744;-77
2023/03/29 07:31:43;;;;;;;;;6.33;6.33;;;;;16.71;100.00;101087.63;5069116;27;45898;-78
2023/03/29 07:34:11;;;;;;;;;4.00;3.00;;;;;16.92;100.00;101105.56;5082474;27;47070;-79
2023/03/29 07:36:38;;;;;;;;;9.67;5.00;;;;;17.14;100.00;101116.03;5086976;27;45764;-79
2023/03/29 07:39:08;;;;;;;;;8.67;5.33;;;;;17.41;100.00;101113.56;5078150;27;46109;-78
2023/03/29 07:41:34;;;;;;;;;4.00;4.00;;;;;17.61;100.00;101098.41;5088625;27;45945;-78
2023/03/29 07:44:07;;;;;;;;;6.00;5.00;;;;;17.75;100.00;101094.25;5072320;27;46063;-78
2023/03/29 07:46:38;;;;;;;;;6.33;5.33;;;;;17.80;100.00;101091.56;5090814;27;45845;-77
2023/03/29 07:49:07;;;;;;;;;4.33;4.33;;;;;17.94;100.00;101100.47;5089097;27;45888;-81
2023/03/29 07:51:32;;;;;;;;;7.67;5.00;;;;;18.04;100.00;101097.03;5075623;27;45497;-83
2023/03/29 07:53:59;;;;;;;;;6.00;4.67;;;;;17.98;100.00;101064.75;5097451;27;45473;-82
2023/03/29 07:56:25;;;;;;;;;4.67;4.00;;;;;18.09;100.00;101096.28;5095917;27;45370;-80
2023/03/29 07:58:50;;;;;;;;;6.00;5.33;;;;;18.17;100.00;101106.97;5095828;27;45741;-83
2023/03/29 08:01:18;;;;;;;;;4.00;4.00;;;;;18.21;100.00;101108.16;5092026;27;45564;-82
2023/03/29 08:03:43;;;;;;;;;5.00;4.00;;;;;18.22;100.00;101114.53;5069443;27;45634;-81
2023/03/29 08:06:16;;;;;;;;;3.00;3.00;;;;;18.31;100.00;101111.09;5087999;27;45757;-81
2023/03/29 08:08:43;;;;;;;;;3.33;3.00;;;;;18.39;100.00;101115.38;5068074;27;46875;-80
2023/03/29 08:11:09;;;;;;;;;6.00;5.00;;;;;18.59;100.00;101114.03;5078379;27;46606;-83
2023/03/29 08:13:35;;;;;;;;;5.00;5.00;;;;;18.75;100.00;101118.72;5088115;27;45921;-82
2023/03/29 08:16:00;;;;;;;;;4.33;4.00;;;;;18.79;100.00;101103.25;5090518;27;46307;-82
2023/03/29 08:18:26;;;;;;;;;3.67;3.67;;;;;18.82;100.00;101101.91;5076542;27;45486;-81
2023/03/29 08:20:51;;;;;;;;;3.00;3.00;;;;;18.75;100.00;101079.00;5087503;27;45921;-79
2023/03/29 08:23:17;;;;;;;;;4.00;4.00;;;;;18.81;100.00;101086.31;5080719;27;45965;-82
2023/03/29 08:25:44;;;;;;;;;6.67;4.00;;;;;18.81;100.00;101062.13;5086977;27;45564;-81
2023/03/29 08:28:10;;;;;;;;;4.33;4.00;;;;;19.19;100.00;101098.53;5079002;27;45913;-81
2023/03/29 08:30:35;;;;;;;;;6.00;6.00;;;;;19.35;100.00;101105.13;5084477;27;45524;-80
2023/03/29 08:33:05;;;;;;;;;5.00;3.67;;;;;19.37;100.00;101102.91;5094667;27;45811;-79
2023/03/29 08:35:36;;;;;;;;;5.00;3.33;;;;;19.63;100.00;101122.72;5069890;27;45466;-81
2023/03/29 08:38:02;;;;;;;;;3.33;3.33;;;;;19.84;100.00;101107.97;5087751;27;45685;-81
2023/03/29 08:40:36;;;;;;;;;4.33;3.67;;;;;19.90;100.00;101118.03;5092826;27;45906;-82
2023/03/29 08:43:32;;;;;;;;;4.33;2.33;;;;;20.20;100.00;101124.19;5075140;27;45510;-82
2023/03/29 08:46:17;;;;;;;;;6.33;3.00;;;;;20.23;100.00;101090.22;5071987;27;46031;-82
2023/03/29 08:48:47;;;;;;;;;4.33;4.33;;;;;20.47;100.00;101099.06;5088621;27;45864;-82
2023/03/29 08:51:25;;;;;;;;;6.33;4.67;;;;;20.64;100.00;101105.31;5080886;27;45484;-82
2023/03/29 08:54:27;;;;;;;;;3.00;3.00;;;;;20.93;100.00;101107.78;5081756;27;45489;-81
2023/03/29 08:57:01;;;;;;;;;5.00;4.00;;;;;20.97;100.00;101099.69;5085059;27;45650;-78
2023/03/29 08:59:31;;;;;;;;;5.00;4.00;;;;;21.11;100.00;101081.38;5075880;27;47028;-78
2023/03/29 09:02:01;;;;;;;;;2.00;2.00;;;;;21.31;100.00;101097.34;5083572;27;46029;-78
2023/03/29 09:04:35;;;;;;;;;6.00;4.00;;;;;21.44;100.00;101117.50;5059440;27;45472;-81
2023/03/29 09:11:25;;;;;;;;;2.33;2.33;;;;;21.98;100.00;101105.94;5036773;27;45629;-80
2023/03/29 09:14:28;;;;;;;;;4.00;4.00;;;;;22.74;100.00;101101.50;5088372;27;45472;-82
2023/03/29 09:24:48;;;;;;;;;5.75;4.50;;;;;25.45;93.26;101093.47;4946737;28;45765;-79
2023/03/29 09:27:27;;;;;;;;;7.00;6.00;;;;;26.08;90.77;101103.53;4889262;29;45955;-78
2023/03/29 09:30:36;;;;;;;;;5.75;3.50;;;;;26.15;88.30;101099.50;5009330;28;45931;-82
2023/03/29 09:33:10;;;;;;;;;5.00;3.00;;;;;25.88;86.26;101090.59;5063084;28;45861;-84
2023/03/29 09:36:13;;;;;;;;;4.00;2.75;;;;;25.49;85.88;101077.66;5095976;27;46457;-81
2023/03/29 09:38:46;;;;;;;;;7.50;5.25;;;;;25.19;86.13;101079.72;5067727;27;45612;-81
2023/03/29 09:41:30;;;;;;;;;5.75;5.50;;;;;24.62;87.91;101045.84;5044207;28;46726;-78
2023/03/29 09:43:59;;;;;;;;;10.00;8.67;;;;;24.74;87.64;101078.25;5041869;28;45714;-79
2023/03/29 09:46:39;;;;;;;;;5.00;4.00;;;;;24.50;88.12;101062.19;5068640;28;46125;-79
2023/03/29 09:49:17;;;;;;;;;5.25;3.25;;;;;24.24;88.77;101047.59;5059887;27;45833;-79
2023/03/29 09:51:46;;;;;;;;;5.00;4.00;;;;;24.22;88.97;101061.06;5063021;28;45849;-80
2023/03/29 09:54:12;;;;;;;;;3.75;2.75;;;;;24.59;88.56;101051.22;5052527;27;47073;-80
2023/03/29 09:56:38;;;;;;;;;2.25;2.25;;;;;24.61;88.22;101058.22;5062937;27;47258;-79
2023/03/29 09:59:04;;;;;;;;;4.50;2.75;;;;;24.63;88.39;101035.47;5060172;28;45459;-78
2023/03/29 10:01:40;;;;;;;;;1.75;1.75;;;;;24.79;88.23;101053.81;5070833;27;45826;-79
2023/03/29 10:04:08;;;;;;;;;2.75;1.75;;;;;25.04;87.82;101026.56;5078516;27;45472;-78
2023/03/29 10:06:35;;;;;;;;;3.75;3.75;;;;;25.71;86.44;101060.22;5072249;28;45489;-80
2023/03/29 10:09:01;;;;;;;;;4.00;2.00;;;;;26.02;84.62;101047.72;5054731;27;45504;-80
2023/03/29 10:11:33;;;;;;;;;4.50;4.50;;;;;26.43;83.76;101044.19;5072574;27;45841;-80
2023/03/29 10:14:05;;;;;;;;;2.00;2.00;;;;;27.09;82.76;101041.25;5074181;28;45480;-79
2023/03/29 10:16:40;;;;;;;;;4.00;2.50;;;;;27.80;79.88;101046.44;5083432;27;45864;-79
2023/03/29 10:19:34;;;;;;;;;1.25;0.75;;;;;28.44;77.32;101036.97;5067794;28;45791;-79
2023/03/29 10:22:25;;;;;;;;;10.25;7.50;;;;;29.20;75.63;101028.31;5071006;27;45416;-80
2023/03/29 10:24:53;;;;;;;;;9.50;9.00;;;;;29.93;73.03;101026.97;5068834;27;45967;-79
2023/03/29 10:27:33;;;;;;;;;2.00;2.00;;;;;30.59;69.50;101018.16;5060779;27;47255;-79
2023/03/29 10:30:07;;;;;;;;;5.00;3.00;;;;;30.85;66.55;101014.38;5064873;27;45777;-79
2023/03/29 10:32:37;;;;;;;;;3.50;2.25;;;;;31.15;65.37;100986.09;5069131;28;46026;-80
2023/03/29 10:35:12;;;;;;;;;4.25;3.00;;;;;31.48;63.36;101008.88;5062096;27;46074;-78
2023/03/29 10:37:49;;;;;;;;;4.75;4.50;;;;;31.58;62.42;101006.81;5067022;28;45552;-78
2023/03/29 10:40:33;;;;;;;;;2.75;2.00;;;;;31.47;60.69;100993.03;5065165;28;45500;-79
2023/03/29 10:43:13;;;;;;;;;2.75;1.25;;;;;31.26;59.99;100978.00;5047559;27;46110;-78
2023/03/29 10:45:40;;;;;;;;;4.50;3.50;;;;;30.67;59.28;100967.53;5048683;28;45905;-79
2023/03/29 10:48:14;;;;;;;;;6.75;3.00;;;;;30.24;59.77;100998.44;5064664;27;48006;-78
2023/03/29 10:50:49;;;;;;;;;2.75;2.00;;;;;29.68;61.57;101008.81;5070014;28;45679;-80
2023/03/29 10:53:27;;;;;;;;;4.25;2.25;;;;;29.44;60.66;100993.16;5055066;28;45868;-78
2023/03/29 10:56:10;;;;;;;;;2.00;2.00;;;;;29.48;60.64;100985.69;5072986;28;45574;-79
2023/03/29 10:58:42;;;;;;;;;5.75;4.00;;;;;29.66;60.07;100988.53;5054306;28;45653;-82
2023/03/29 11:05:04;;;;;;;;;7.25;3.00;;;;;29.26;58.33;100977.38;5072356;28;45671;-81
2023/03/29 11:08:27;;;;;;;;;3.50;2.00;;;;;28.59;58.59;100932.13;5079045;27;45855;-81
2023/03/29 11:11:04;;;;;;;;;3.25;2.25;;;;;28.66;58.92;100974.84;4957779;28;48274;-83
2023/03/29 11:13:48;;;;;;;;;4.25;3.75;;;;;28.44;59.85;100981.34;4970976;28;45957;-83
2023/03/29 11:16:23;;;;;;;;;1.50;1.50;;;;;28.08;59.08;100967.41;5049764;28;45471;-83
2023/03/29 11:19:18;;;;;;;;;1.50;1.50;;;;;27.59;59.04;100968.03;5068356;27;45471;-84
2023/03/29 11:22:01;;;;;;;;;1.25;1.25;;;;;27.27;59.10;100967.03;5067224;28;45772;-84
2023/03/29 11:24:56;;;;;;;;;1.50;1.25;;;;;26.83;58.24;100973.38;5063310;28;45589;-85
2023/03/29 11:27:49;;;;;;;;;3.00;2.00;;;;;26.20;59.99;100928.75;5082900;28;45142;-84
2023/03/29 11:30:29;;;;;;;;;2.75;1.00;;;;;26.25;57.51;100970.81;5060422;27;45909;-84
2023/03/29 11:33:13;;;;;;;;;0.50;0.50;;;;;25.80;56.00;100969.63;5087554;27;47040;-84
2023/03/29 11:36:02;;;;;;;;;1.00;1.00;;;;;25.37;56.05;100973.38;5091417;27;45895;-83
2023/03/29 11:38:34;;;;;;;;;2.50;2.50;;;;;25.00;55.45;100963.75;5091831;27;45406;-84
2023/03/29 11:41:05;;;;;;;;;1.25;1.25;;;;;24.76;55.24;100953.44;5085323;27;45734;-82
2023/03/29 11:43:43;;;;;;;;;3.25;1.25;;;;;24.71;55.55;100973.09;5102514;27;46020;-83
2023/03/29 11:46:22;;;;;;;;;0.25;0.25;;;;;24.65;56.40;100980.72;5091532;27;45490;-83
2023/03/29 11:49:00;;;;;;;;;1.00;1.00;;;;;24.49;56.55;100968.84;5089595;27;45399;-83